Time;durP1;ratioP1;P1;durP2;ratioP2;P2;SDS_P1;SDS_P2;PMS_P1;PMS_P2;Temp;Humidity;BMP_temperature;BMP_pressure;BME280_temperature;BME280_humidity;BME280_pressure;Samples;Min_cycle;Max_cycle;Signal;HPM_P1;HPM_P2
2022/01/06 00:00:36;;;;;;;5.20;1.17;;;;;;;;;;5068783;28;20052;-73
2022/01/06 00:03:02;;;;;;;4.07;1.20;;;;;;;;;;5070156;28;20156;-73
2022/01/06 00:05:28;;;;;;;5.93;1.17;;;;;;;;;;5069473;28;20040;-74
2022/01/06 00:07:54;;;;;;;5.30;1.20;;;;;;;;;;5069872;28;20066;-74
2022/01/06 00:10:21;;;;;;;4.80;1.50;;;;;;;;;;5069860;28;20053;-73
2022/01/06 00:13:06;;;;;;;5.07;1.30;;;;;;;;;;5069578;28;20047;-74
2022/01/06 00:15:41;;;;;;;8.70;1.25;;;;;;;;;;5068644;28;20102;-72
2022/01/06 00:23:31;;;;;;;4.35;1.17;;;;;;;;;;5068085;28;20055;-73
2022/01/06 00:25:58;;;;;;;5.03;1.10;;;;;;;;;;5069363;28;20119;-73
2022/01/06 00:28:25;;;;;;;5.35;1.30;;;;;;;;;;5069626;28;20044;-73
2022/01/06 00:30:51;;;;;;;4.60;1.17;;;;;;;;;;5051686;28;20048;-74
2022/01/06 00:33:17;;;;;;;5.47;1.30;;;;;;;;;;5069203;28;20586;-73
2022/01/06 00:35:43;;;;;;;3.30;1.00;;;;;;;;;;5069798;28;20418;-73
2022/01/06 00:38:09;;;;;;;5.53;1.02;;;;;;;;;;5051803;28;20041;-74
2022/01/06 00:40:36;;;;;;;3.75;1.10;;;;;;;;;;5068807;28;20074;-74
2022/01/06 00:43:03;;;;;;;6.65;1.60;;;;;;;;;;5068829;28;20514;-74
2022/01/06 00:45:30;;;;;;;6.18;1.27;;;;;;;;;;5069073;28;20518;-74
2022/01/06 00:47:57;;;;;;;5.43;1.77;;;;;;;;;;5068305;28;20047;-74
2022/01/06 00:50:23;;;;;;;3.90;0.95;;;;;;;;;;5069252;28;20076;-73
2022/01/06 00:52:49;;;;;;;3.88;0.88;;;;;;;;;;5068552;28;20391;-74
2022/01/06 00:55:15;;;;;;;4.07;1.02;;;;;;;;;;5067366;28;20548;-74
2022/01/06 00:57:41;;;;;;;3.78;1.33;;;;;;;;;;5067249;28;20049;-73
2022/01/06 01:00:09;;;;;;;4.63;1.35;;;;;;;;;;5068608;28;20057;-73
2022/01/06 01:02:35;;;;;;;3.75;1.00;;;;;;;;;;5068137;28;20468;-74
2022/01/06 01:05:01;;;;;;;5.53;1.20;;;;;;;;;;5068580;28;20045;-74
2022/01/06 01:07:27;;;;;;;3.67;0.88;;;;;;;;;;5069089;28;20040;-74
2022/01/06 01:09:53;;;;;;;5.35;1.02;;;;;;;;;;5068140;28;20063;-74
2022/01/06 01:12:22;;;;;;;3.35;0.98;;;;;;;;;;5067929;28;20498;-75
2022/01/06 01:15:05;;;;;;;3.10;1.00;;;;;;;;;;5068483;28;20411;-74
2022/01/06 01:17:31;;;;;;;4.95;1.38;;;;;;;;;;5050677;28;20052;-74
2022/01/06 01:19:57;;;;;;;4.32;1.27;;;;;;;;;;5066659;28;20131;-75
2022/01/06 01:22:23;;;;;;;4.30;0.98;;;;;;;;;;5067057;28;20533;-75
2022/01/06 01:24:49;;;;;;;3.53;1.05;;;;;;;;;;5068775;28;20076;-74
2022/01/06 01:27:20;;;;;;;3.92;0.70;;;;;;;;;;5050932;28;20087;-74
2022/01/06 01:30:03;;;;;;;6.07;1.35;;;;;;;;;;5069903;28;20056;-75
2022/01/06 01:32:33;;;;;;;8.88;1.30;;;;;;;;;;5055063;28;20052;-73
2022/01/06 01:35:01;;;;;;;5.30;1.02;;;;;;;;;;5072386;28;20056;-74
2022/01/06 01:37:28;;;;;;;7.35;1.30;;;;;;;;;;5054791;28;20078;-73
2022/01/06 01:39:54;;;;;;;4.97;1.25;;;;;;;;;;5072605;28;20055;-73
2022/01/06 01:42:20;;;;;;;5.80;1.30;;;;;;;;;;5054273;28;20041;-73
2022/01/06 01:44:48;;;;;;;3.00;0.93;;;;;;;;;;5072714;28;20391;-73
2022/01/06 01:47:16;;;;;;;5.20;1.00;;;;;;;;;;5072713;28;20049;-74
2022/01/06 01:49:56;;;;;;;5.43;0.80;;;;;;;;;;5070955;28;20468;-73
2022/01/06 01:52:22;;;;;;;5.90;1.30;;;;;;;;;;5072814;28;20522;-74
2022/01/06 01:54:49;;;;;;;6.47;1.35;;;;;;;;;;5072415;28;20414;-74
2022/01/06 01:57:15;;;;;;;5.80;1.08;;;;;;;;;;5072260;28;20045;-73
2022/01/06 01:59:41;;;;;;;4.18;1.60;;;;;;;;;;5072506;28;20093;-74
2022/01/06 02:02:08;;;;;;;3.20;1.17;;;;;;;;;;5071850;28;20062;-73
2022/01/06 02:04:34;;;;;;;3.15;1.00;;;;;;;;;;5072540;28;20057;-74
2022/01/06 02:07:00;;;;;;;3.30;0.98;;;;;;;;;;5072414;28;20175;-74
2022/01/06 02:09:26;;;;;;;4.70;1.10;;;;;;;;;;5071915;28;20056;-74
2022/01/06 02:11:53;;;;;;;3.40;0.77;;;;;;;;;;5071645;28;20045;-74
2022/01/06 02:14:19;;;;;;;2.15;0.95;;;;;;;;;;5070689;28;20105;-74
2022/01/06 02:16:45;;;;;;;5.68;1.50;;;;;;;;;;5071148;28;20037;-73
2022/01/06 02:19:11;;;;;;;23.17;1.98;;;;;;;;;;5071888;28;20135;-74
2022/01/06 02:21:41;;;;;;;9.25;2.42;;;;;;;;;;5071849;28;20421;-74
2022/01/06 02:24:07;;;;;;;6.22;1.20;;;;;;;;;;5070835;28;20107;-74
2022/01/06 02:26:33;;;;;;;8.98;1.27;;;;;;;;;;5072171;28;20055;-74
2022/01/06 02:28:59;;;;;;;6.95;1.50;;;;;;;;;;5070358;28;20045;-74
2022/01/06 02:31:25;;;;;;;8.25;0.90;;;;;;;;;;5070437;28;20402;-74
2022/01/06 02:33:51;;;;;;;2.47;0.88;;;;;;;;;;5071852;28;20044;-74
2022/01/06 02:36:17;;;;;;;3.60;1.00;;;;;;;;;;5070591;28;20048;-74
2022/01/06 02:38:43;;;;;;;3.78;0.82;;;;;;;;;;5070397;28;20045;-74
2022/01/06 02:41:09;;;;;;;4.28;1.10;;;;;;;;;;5070692;28;20075;-74
2022/01/06 02:43:36;;;;;;;3.47;0.98;;;;;;;;;;5070297;28;20422;-75
2022/01/06 02:46:02;;;;;;;2.45;0.90;;;;;;;;;;5070310;28;20064;-75
2022/01/06 02:48:28;;;;;;;5.68;1.23;;;;;;;;;;5071312;28;20068;-75
2022/01/06 02:50:54;;;;;;;4.32;0.90;;;;;;;;;;5071375;28;20041;-74
2022/01/06 02:53:20;;;;;;;2.58;0.80;;;;;;;;;;5070125;28;20434;-75
2022/01/06 02:55:50;;;;;;;4.68;1.45;;;;;;;;;;5070537;28;20489;-75
2022/01/06 02:58:20;;;;;;;4.95;0.90;;;;;;;;;;5071455;28;20060;-75
2022/01/06 03:00:46;;;;;;;7.10;1.02;;;;;;;;;;5071393;28;20073;-75
2022/01/06 03:03:12;;;;;;;6.20;1.55;;;;;;;;;;5071130;28;20047;-74
2022/01/06 03:05:38;;;;;;;4.70;1.02;;;;;;;;;;5052983;28;20480;-75
2022/01/06 03:08:05;;;;;;;2.70;0.75;;;;;;;;;;5052544;28;20158;-75
2022/01/06 03:10:35;;;;;;;3.67;0.75;;;;;;;;;;5071064;28;20117;-74
2022/01/06 03:13:01;;;;;;;3.30;1.00;;;;;;;;;;5069615;28;20138;-74
2022/01/06 03:15:27;;;;;;;2.33;0.70;;;;;;;;;;5069839;28;20507;-74
2022/01/06 03:17:58;;;;;;;7.07;1.20;;;;;;;;;;5070969;28;20040;-73
2022/01/06 03:20:25;;;;;;;2.33;0.85;;;;;;;;;;5052932;28;20049;-73
2022/01/06 03:22:52;;;;;;;6.28;0.80;;;;;;;;;;5052355;28;20048;-73
2022/01/06 03:25:18;;;;;;;6.47;1.40;;;;;;;;;;5070715;28;20088;-74
2022/01/06 03:27:45;;;;;;;2.22;0.63;;;;;;;;;;5069471;28;20044;-74
2022/01/06 03:30:12;;;;;;;3.72;1.13;;;;;;;;;;5070569;28;20049;-74
2022/01/06 03:32:39;;;;;;;4.90;0.73;;;;;;;;;;5070700;28;20393;-74
2022/01/06 03:35:05;;;;;;;3.17;1.00;;;;;;;;;;5052445;28;20126;-74
2022/01/06 03:37:31;;;;;;;2.40;0.70;;;;;;;;;;5068256;28;20552;-74
2022/01/06 03:39:59;;;;;;;3.05;0.80;;;;;;;;;;5069450;28;20076;-75
2022/01/06 03:42:25;;;;;;;5.03;1.02;;;;;;;;;;5069023;28;20048;-75
2022/01/06 03:44:51;;;;;;;2.80;0.98;;;;;;;;;;5070231;28;20525;-75
2022/01/06 03:47:17;;;;;;;2.28;0.80;;;;;;;;;;5070244;28;20048;-75
2022/01/06 03:49:43;;;;;;;1.42;0.60;;;;;;;;;;5068513;28;20053;-75
2022/01/06 03:52:09;;;;;;;2.67;0.70;;;;;;;;;;5069363;28;20048;-75
2022/01/06 03:54:35;;;;;;;2.70;1.10;;;;;;;;;;5068953;28;20044;-75
2022/01/06 03:57:01;;;;;;;11.75;1.42;;;;;;;;;;5069978;28;20090;-73
2022/01/06 03:59:27;;;;;;;3.70;1.05;;;;;;;;;;5069795;28;20051;-74
2022/01/06 04:01:53;;;;;;;2.95;0.80;;;;;;;;;;5069891;28;20040;-74
2022/01/06 04:04:19;;;;;;;3.65;0.77;;;;;;;;;;5068324;28;20048;-74
2022/01/06 04:06:45;;;;;;;2.95;0.90;;;;;;;;;;5070038;28;20040;-73
2022/01/06 04:09:11;;;;;;;3.67;0.95;;;;;;;;;;5051662;28;20490;-75
2022/01/06 04:11:38;;;;;;;10.05;1.08;;;;;;;;;;5069814;28;20044;-73
2022/01/06 04:14:04;;;;;;;3.67;0.90;;;;;;;;;;5069660;28;20045;-74
2022/01/06 04:16:34;;;;;;;4.85;1.00;;;;;;;;;;5070027;28;20068;-73
2022/01/06 04:19:00;;;;;;;7.07;1.05;;;;;;;;;;5069320;28;20049;-74
2022/01/06 04:21:26;;;;;;;2.28;0.88;;;;;;;;;;5068693;28;20051;-74
2022/01/06 04:23:52;;;;;;;3.30;0.82;;;;;;;;;;5068093;28;20048;-74
2022/01/06 04:26:18;;;;;;;7.25;1.30;;;;;;;;;;5069485;28;20048;-74
2022/01/06 04:28:44;;;;;;;4.35;1.20;;;;;;;;;;5068132;28;20418;-74
2022/01/06 04:31:10;;;;;;;6.55;0.90;;;;;;;;;;5069419;28;20125;-73
2022/01/06 04:33:36;;;;;;;4.18;1.05;;;;;;;;;;5068484;28;20044;-74
2022/01/06 04:36:03;;;;;;;2.85;0.88;;;;;;;;;;5069309;28;21493;-74
2022/01/06 04:38:29;;;;;;;4.13;0.70;;;;;;;;;;5069123;28;20044;-74
2022/01/06 04:40:58;;;;;;;3.80;0.75;;;;;;;;;;5069446;28;20052;-74
2022/01/06 04:43:24;;;;;;;3.10;0.60;;;;;;;;;;5069751;28;20093;-74
2022/01/06 04:45:50;;;;;;;4.60;1.10;;;;;;;;;;5069289;28;20051;-74
2022/01/06 04:48:16;;;;;;;2.90;0.80;;;;;;;;;;5069303;28;20044;-74
2022/01/06 04:50:42;;;;;;;2.40;0.90;;;;;;;;;;5069248;28;20114;-74
2022/01/06 04:53:08;;;;;;;3.75;1.00;;;;;;;;;;5067632;28;20410;-74
2022/01/06 04:55:34;;;;;;;2.88;0.80;;;;;;;;;;5051590;28;20482;-74
2022/01/06 04:58:01;;;;;;;4.07;0.65;;;;;;;;;;5069347;28;20406;-74
2022/01/06 05:00:27;;;;;;;2.85;0.90;;;;;;;;;;5069050;28;20048;-74
2022/01/06 05:02:53;;;;;;;3.53;0.60;;;;;;;;;;5068586;28;20049;-74
2022/01/06 05:05:19;;;;;;;4.47;1.17;;;;;;;;;;5069171;28;20406;-74
2022/01/06 05:07:45;;;;;;;6.40;0.93;;;;;;;;;;5067646;28;20045;-74
2022/01/06 05:10:11;;;;;;;4.75;1.00;;;;;;;;;;5068911;28;20092;-74
2022/01/06 05:12:41;;;;;;;3.55;0.88;;;;;;;;;;5068644;28;20053;-75
2022/01/06 05:15:07;;;;;;;3.42;1.17;;;;;;;;;;5068753;28;20530;-75
2022/01/06 05:17:33;;;;;;;3.05;0.82;;;;;;;;;;5067033;28;20053;-75
2022/01/06 05:19:59;;;;;;;2.17;0.80;;;;;;;;;;5068156;28;20561;-74
2022/01/06 05:22:26;;;;;;;2.92;0.85;;;;;;;;;;5067243;28;20044;-74
2022/01/06 05:24:53;;;;;;;3.28;0.60;;;;;;;;;;5067473;28;20509;-74
2022/01/06 05:27:19;;;;;;;3.20;0.80;;;;;;;;;;5067048;28;20123;-74
2022/01/06 05:29:46;;;;;;;3.17;1.10;;;;;;;;;;5068358;28;20080;-74
2022/01/06 05:32:12;;;;;;;4.63;0.82;;;;;;;;;;5068816;28;20048;-74
2022/01/06 05:34:38;;;;;;;5.75;0.90;;;;;;;;;;5066909;28;20040;-74
2022/01/06 05:37:04;;;;;;;2.10;0.70;;;;;;;;;;5067563;28;20135;-74
2022/01/06 05:39:30;;;;;;;2.88;0.57;;;;;;;;;;5067802;28;20082;-74
2022/01/06 05:41:56;;;;;;;3.90;0.90;;;;;;;;;;5068649;28;20048;-73
2022/01/06 05:44:24;;;;;;;3.00;0.95;;;;;;;;;;5068875;28;20053;-74
2022/01/06 05:46:50;;;;;;;2.65;0.65;;;;;;;;;;5067894;28;20052;-73
2022/01/06 05:49:16;;;;;;;3.28;0.77;;;;;;;;;;5068373;28;20510;-73
2022/01/06 05:51:42;;;;;;;3.38;0.90;;;;;;;;;;5068434;28;20036;-73
2022/01/06 05:54:08;;;;;;;4.18;0.88;;;;;;;;;;5068590;28;20506;-73
2022/01/06 05:56:34;;;;;;;3.28;0.90;;;;;;;;;;5067434;28;20045;-73
2022/01/06 05:59:00;;;;;;;2.70;0.80;;;;;;;;;;5066744;28;20083;-73
2022/01/06 06:01:26;;;;;;;2.15;0.70;;;;;;;;;;5068817;28;20099;-73
2022/01/06 06:03:54;;;;;;;2.65;0.88;;;;;;;;;;5068657;28;20395;-73
2022/01/06 06:06:20;;;;;;;4.85;1.02;;;;;;;;;;5068551;28;20455;-73
2022/01/06 06:08:46;;;;;;;3.15;0.80;;;;;;;;;;5068404;28;20615;-73
2022/01/06 06:11:12;;;;;;;4.38;0.95;;;;;;;;;;5067616;28;20048;-72
2022/01/06 06:13:38;;;;;;;4.07;0.70;;;;;;;;;;5068425;28;20050;-73
2022/01/06 06:16:05;;;;;;;6.90;0.90;;;;;;;;;;5069780;28;20127;-72
2022/01/06 06:18:31;;;;;;;3.22;0.95;;;;;;;;;;5072020;28;20043;-72
2022/01/06 06:20:57;;;;;;;2.92;0.82;;;;;;;;;;5071479;28;20048;-72
2022/01/06 06:23:23;;;;;;;5.13;0.93;;;;;;;;;;5072164;28;20489;-72
2022/01/06 06:25:49;;;;;;;3.92;0.93;;;;;;;;;;5071849;28;20044;-73
2022/01/06 06:28:15;;;;;;;3.65;0.85;;;;;;;;;;5071500;28;20513;-72
2022/01/06 06:30:41;;;;;;;5.75;1.13;;;;;;;;;;5071233;28;20052;-72
2022/01/06 06:33:07;;;;;;;3.58;0.80;;;;;;;;;;5070502;28;20510;-72
2022/01/06 06:35:33;;;;;;;2.70;1.00;;;;;;;;;;5071948;28;20051;-72
2022/01/06 06:37:59;;;;;;;6.63;0.88;;;;;;;;;;5071389;28;20044;-71
2022/01/06 06:40:25;;;;;;;3.33;1.05;;;;;;;;;;5070923;28;20457;-72
2022/01/06 06:42:52;;;;;;;2.60;0.93;;;;;;;;;;5069058;28;20096;-72
2022/01/06 06:45:19;;;;;;;3.58;1.08;;;;;;;;;;5070701;28;20043;-72
2022/01/06 06:47:45;;;;;;;4.38;1.05;;;;;;;;;;5070719;28;20131;-72
2022/01/06 06:50:15;;;;;;;2.45;0.80;;;;;;;;;;5066354;28;20056;-72
2022/01/06 06:52:41;;;;;;;3.08;0.73;;;;;;;;;;5069161;28;20510;-71
2022/01/06 06:55:07;;;;;;;5.47;1.00;;;;;;;;;;5070980;28;20457;-72
2022/01/06 06:57:34;;;;;;;2.90;0.70;;;;;;;;;;5070634;28;20045;-72
2022/01/06 07:00:04;;;;;;;1.77;0.80;;;;;;;;;;5052541;28;20059;-72
2022/01/06 07:02:30;;;;;;;2.63;0.80;;;;;;;;;;5069370;28;20080;-73
2022/01/06 07:04:56;;;;;;;3.00;0.88;;;;;;;;;;5069565;28;20048;-73
2022/01/06 07:07:22;;;;;;;3.40;0.60;;;;;;;;;;5069976;28;20053;-73
2022/01/06 07:09:48;;;;;;;2.28;0.55;;;;;;;;;;5069150;28;20056;-73
2022/01/06 07:12:14;;;;;;;3.22;0.88;;;;;;;;;;5070441;28;20754;-73
2022/01/06 07:14:40;;;;;;;3.75;1.20;;;;;;;;;;5069240;28;20044;-73
2022/01/06 07:17:07;;;;;;;4.57;1.35;;;;;;;;;;5068728;28;20048;-73
2022/01/06 07:19:33;;;;;;;2.17;0.75;;;;;;;;;;5070387;28;20051;-73
2022/01/06 07:21:59;;;;;;;3.28;0.70;;;;;;;;;;5069096;28;20052;-73
2022/01/06 07:24:25;;;;;;;2.90;0.98;;;;;;;;;;5069292;28;20040;-73
2022/01/06 07:26:51;;;;;;;5.47;1.00;;;;;;;;;;5070009;28;20128;-73
2022/01/06 07:29:17;;;;;;;2.80;0.95;;;;;;;;;;5069373;28;20064;-73
2022/01/06 07:31:43;;;;;;;3.35;0.80;;;;;;;;;;5070043;28;21186;-73
2022/01/06 07:34:09;;;;;;;3.22;0.73;;;;;;;;;;5070088;28;20134;-73
2022/01/06 07:36:35;;;;;;;2.30;0.52;;;;;;;;;;5052195;28;20103;-73
2022/01/06 07:39:01;;;;;;;3.65;0.93;;;;;;;;;;5069244;28;20123;-73
2022/01/06 07:41:27;;;;;;;4.25;1.30;;;;;;;;;;5069771;28;20060;-73
2022/01/06 07:43:53;;;;;;;5.57;0.98;;;;;;;;;;5068057;28;20048;-74
2022/01/06 07:46:19;;;;;;;2.25;0.70;;;;;;;;;;5069442;28;20402;-73
2022/01/06 07:48:55;;;;;;;2.63;0.60;;;;;;;;;;5070390;28;20509;-72
2022/01/06 07:51:23;;;;;;;2.13;0.70;;;;;;;;;;5069232;28;20051;-72
2022/01/06 07:53:49;;;;;;;3.63;0.80;;;;;;;;;;5070403;28;20044;-74
2022/01/06 07:56:15;;;;;;;3.88;0.60;;;;;;;;;;5069283;28;20040;-73
2022/01/06 07:58:41;;;;;;;2.83;0.70;;;;;;;;;;5070081;28;20047;-73
2022/01/06 08:01:07;;;;;;;3.17;0.82;;;;;;;;;;5069558;28;20045;-73
2022/01/06 08:03:33;;;;;;;17.13;1.10;;;;;;;;;;5070573;28;20099;-73
2022/01/06 08:05:59;;;;;;;6.72;1.35;;;;;;;;;;5068894;28;20109;-74
2022/01/06 08:08:25;;;;;;;6.13;1.00;;;;;;;;;;5069597;28;20143;-74
2022/01/06 08:10:51;;;;;;;4.15;0.80;;;;;;;;;;5070046;28;20045;-73
2022/01/06 08:13:17;;;;;;;5.85;0.98;;;;;;;;;;5069562;28;20048;-74
2022/01/06 08:15:44;;;;;;;5.05;1.55;;;;;;;;;;5052283;28;20044;-73
2022/01/06 08:18:10;;;;;;;3.53;0.80;;;;;;;;;;5069735;28;20048;-73
2022/01/06 08:20:38;;;;;;;3.47;0.82;;;;;;;;;;5069953;28;20051;-74
2022/01/06 08:23:04;;;;;;;5.22;0.98;;;;;;;;;;5070031;28;20059;-75
2022/01/06 08:25:30;;;;;;;2.42;0.90;;;;;;;;;;5069322;28;20136;-74
2022/01/06 08:27:56;;;;;;;6.22;1.23;;;;;;;;;;5069884;28;20044;-74
2022/01/06 08:30:22;;;;;;;3.63;0.88;;;;;;;;;;5070088;28;20053;-74
2022/01/06 08:32:48;;;;;;;2.90;0.98;;;;;;;;;;5069007;28;20384;-75
2022/01/06 08:35:14;;;;;;;4.72;0.80;;;;;;;;;;5068553;28;20045;-74
2022/01/06 08:37:40;;;;;;;3.95;0.90;;;;;;;;;;5069497;28;20052;-74
2022/01/06 08:40:07;;;;;;;5.78;1.10;;;;;;;;;;5068267;28;20094;-73
2022/01/06 08:42:34;;;;;;;2.80;0.60;;;;;;;;;;5068901;28;20071;-74
2022/01/06 08:45:00;;;;;;;2.40;0.75;;;;;;;;;;5068616;28;20037;-74
2022/01/06 08:47:26;;;;;;;3.38;1.08;;;;;;;;;;5067756;28;20403;-74
2022/01/06 08:49:52;;;;;;;6.90;1.10;;;;;;;;;;5068895;28;20048;-73
2022/01/06 08:52:18;;;;;;;3.92;1.13;;;;;;;;;;5068450;28;20048;-72
2022/01/06 08:54:44;;;;;;;4.28;0.70;;;;;;;;;;5051576;28;20051;-72
2022/01/06 08:57:10;;;;;;;3.97;0.80;;;;;;;;;;5069255;28;20124;-72
2022/01/06 08:59:36;;;;;;;5.47;1.00;;;;;;;;;;5069373;28;20090;-73
2022/01/06 09:02:02;;;;;;;4.65;1.20;;;;;;;;;;5069456;28;20051;-72
2022/01/06 09:04:28;;;;;;;3.55;1.10;;;;;;;;;;5069640;28;20052;-73
2022/01/06 09:06:54;;;;;;;4.07;1.10;;;;;;;;;;5069106;28;20045;-73
2022/01/06 09:09:21;;;;;;;3.60;1.30;;;;;;;;;;5068873;28;20056;-73
2022/01/06 09:11:47;;;;;;;3.55;1.00;;;;;;;;;;5069171;28;20059;-73
2022/01/06 09:14:13;;;;;;;5.28;1.23;;;;;;;;;;5049713;28;20135;-73
2022/01/06 09:16:40;;;;;;;4.53;1.20;;;;;;;;;;5060003;28;20498;-73
2022/01/06 09:19:06;;;;;;;6.72;1.23;;;;;;;;;;5067053;28;20055;-73
2022/01/06 09:21:32;;;;;;;4.03;1.20;;;;;;;;;;5068417;28;20048;-72
2022/01/06 09:24:06;;;;;;;4.47;1.33;;;;;;;;;;5071892;28;20036;-70
2022/01/06 09:26:33;;;;;;;6.13;1.45;;;;;;;;;;5087842;28;20090;-72
2022/01/06 09:28:59;;;;;;;4.20;1.38;;;;;;;;;;5070899;28;20114;-72
2022/01/06 09:31:25;;;;;;;4.93;1.17;;;;;;;;;;5068969;28;20036;-72
2022/01/06 09:33:51;;;;;;;6.60;1.85;;;;;;;;;;5068837;28;20097;-73
2022/01/06 09:36:17;;;;;;;4.07;1.10;;;;;;;;;;5069067;28;20051;-73
2022/01/06 09:38:46;;;;;;;4.97;1.35;;;;;;;;;;5069089;28;20048;-72
2022/01/06 09:41:12;;;;;;;3.58;1.20;;;;;;;;;;5068621;28;20049;-73
2022/01/06 09:43:38;;;;;;;5.82;1.40;;;;;;;;;;5060425;28;20484;-73
2022/01/06 09:46:06;;;;;;;4.18;1.65;;;;;;;;;;5058856;28;20052;-72
2022/01/06 09:48:34;;;;;;;3.33;0.90;;;;;;;;;;5052426;28;20098;-75
2022/01/06 09:51:00;;;;;;;3.58;0.95;;;;;;;;;;5068024;28;20543;-73
2022/01/06 09:53:26;;;;;;;4.57;1.20;;;;;;;;;;5072456;28;20490;-72
2022/01/06 09:55:53;;;;;;;4.90;1.48;;;;;;;;;;5071096;28;20518;-73
2022/01/06 09:58:28;;;;;;;5.07;1.30;;;;;;;;;;5071373;28;20048;-72
2022/01/06 10:00:56;;;;;;;3.20;1.05;;;;;;;;;;5071899;28;20086;-72
2022/01/06 10:03:32;;;;;;;3.88;1.13;;;;;;;;;;5072150;28;20076;-72
2022/01/06 10:06:08;;;;;;;2.80;1.23;;;;;;;;;;5072104;28;20051;-73
2022/01/06 10:08:34;;;;;;;4.72;1.63;;;;;;;;;;5071253;28;20410;-73
2022/01/06 10:11:13;;;;;;;5.40;1.80;;;;;;;;;;5071467;28;20047;-74
2022/01/06 10:13:40;;;;;;;5.13;1.42;;;;;;;;;;5058759;28;20055;-75
2022/01/06 10:16:13;;;;;;;5.65;1.70;;;;;;;;;;5078144;28;20052;-72
2022/01/06 10:18:39;;;;;;;4.18;1.30;;;;;;;;;;5072294;28;20086;-73
2022/01/06 10:21:12;;;;;;;4.28;1.23;;;;;;;;;;5071126;28;20049;-73
2022/01/06 10:23:39;;;;;;;3.97;1.40;;;;;;;;;;5071536;28;20041;-74
2022/01/06 10:26:12;;;;;;;5.88;1.70;;;;;;;;;;5069765;28;20581;-74
2022/01/06 10:28:38;;;;;;;4.78;1.70;;;;;;;;;;5049800;28;20053;-74
2022/01/06 10:31:07;;;;;;;3.05;1.25;;;;;;;;;;5064998;28;20151;-73
2022/01/06 10:33:33;;;;;;;;;;;;;;;;;;5071733;28;20520;-73
2022/01/06 10:36:04;;;;;;;5.40;1.58;;;;;;;;;;5071047;28;19921;-73
2022/01/06 10:38:30;;;;;;;7.03;1.42;;;;;;;;;;5070010;28;20132;-76
2022/01/06 10:41:13;;;;;;;5.82;1.70;;;;;;;;;;5071157;28;20044;-74
2022/01/06 10:43:39;;;;;;;6.40;1.70;;;;;;;;;;5069560;28;20045;-73
2022/01/06 10:46:07;;;;;;;5.45;1.60;;;;;;;;;;5070103;28;20044;-73
2022/01/06 10:48:33;;;;;;;5.32;1.52;;;;;;;;;;5070257;28;20055;-72
2022/01/06 10:51:00;;;;;;;6.75;2.10;;;;;;;;;;5068792;28;20086;-74
2022/01/06 10:53:26;;;;;;;5.47;1.50;;;;;;;;;;5070052;28;20127;-74
2022/01/06 10:55:52;;;;;;;6.35;2.17;;;;;;;;;;5069737;28;20048;-74
2022/01/06 10:58:25;;;;;;;5.60;1.48;;;;;;;;;;5071101;28;20055;-73
2022/01/06 11:00:56;;;;;;;6.22;1.30;;;;;;;;;;5071047;28;20905;-76
2022/01/06 11:03:23;;;;;;;5.18;1.55;;;;;;;;;;5069432;28;20048;-74
2022/01/06 11:05:51;;;;;;;4.60;1.45;;;;;;;;;;5070093;28;20437;-75
2022/01/06 11:08:20;;;;;;;5.30;2.03;;;;;;;;;;5052433;28;20608;-74
2022/01/06 11:11:02;;;;;;;5.78;1.58;;;;;;;;;;5070998;28;20052;-73
2022/01/06 11:13:30;;;;;;;5.70;1.80;;;;;;;;;;5058528;28;20463;-73
2022/01/06 11:15:57;;;;;;;6.63;2.27;;;;;;;;;;5070589;28;20082;-73
2022/01/06 11:18:23;;;;;;;4.80;1.50;;;;;;;;;;5070939;28;20091;-75
2022/01/06 11:20:49;;;;;;;4.22;1.45;;;;;;;;;;5072515;28;20388;-77
2022/01/06 11:23:23;;;;;;;5.32;1.75;;;;;;;;;;5069638;28;20046;-77
2022/01/06 11:26:02;;;;;;;5.55;1.60;;;;;;;;;;5070430;28;20101;-76
2022/01/06 11:28:30;;;;;;;5.80;1.52;;;;;;;;;;5069121;28;20085;-76
2022/01/06 11:30:56;;;;;;;7.13;1.63;;;;;;;;;;5070001;28;20037;-77
2022/01/06 11:33:22;;;;;;;4.10;1.38;;;;;;;;;;5067745;28;20040;-75
2022/01/06 11:35:49;;;;;;;5.57;1.77;;;;;;;;;;5069620;28;20064;-76
2022/01/06 11:38:17;;;;;;;6.78;1.80;;;;;;;;;;5070673;28;20080;-77
2022/01/06 11:40:44;;;;;;;5.18;1.75;;;;;;;;;;5069384;28;20174;-76
2022/01/06 11:43:10;;;;;;;5.38;1.50;;;;;;;;;;5069157;28;20131;-75
2022/01/06 11:45:37;;;;;;;5.70;1.42;;;;;;;;;;5070696;28;20040;-75
2022/01/06 11:48:07;;;;;;;5.28;1.75;;;;;;;;;;5069891;28;20086;-75
2022/01/06 11:50:37;;;;;;;7.40;2.10;;;;;;;;;;5070538;28;20418;-75
2022/01/06 11:53:04;;;;;;;7.18;1.67;;;;;;;;;;5070322;28;20076;-75
2022/01/06 11:55:34;;;;;;;4.85;1.60;;;;;;;;;;5061765;28;20115;-76
2022/01/06 11:58:10;;;;;;;7.20;1.88;;;;;;;;;;5064600;28;20392;-75
2022/01/06 12:00:39;;;;;;;5.90;1.83;;;;;;;;;;5070119;28;20387;-74
2022/01/06 12:03:09;;;;;;;6.18;1.60;;;;;;;;;;5069520;28;20086;-74
2022/01/06 12:05:48;;;;;;;9.77;2.25;;;;;;;;;;5070143;28;20102;-74
2022/01/06 12:08:14;;;;;;;4.57;1.60;;;;;;;;;;5069158;28;20742;-74
2022/01/06 12:10:44;;;;;;;7.35;2.20;;;;;;;;;;5069893;28;20127;-74
2022/01/06 12:13:11;;;;;;;7.30;2.28;;;;;;;;;;5067451;28;20446;-76
2022/01/06 12:15:54;;;;;;;7.45;1.90;;;;;;;;;;5059652;28;20052;-75
2022/01/06 12:18:23;;;;;;;9.00;1.75;;;;;;;;;;5069392;28;20383;-76
2022/01/06 12:20:50;;;;;;;8.85;1.70;;;;;;;;;;5069260;28;20540;-74
2022/01/06 12:23:17;;;;;;;4.72;1.50;;;;;;;;;;5086564;28;20127;-74
2022/01/06 12:25:47;;;;;;;7.18;1.80;;;;;;;;;;5078225;28;20056;-76
2022/01/06 12:28:14;;;;;;;11.15;2.22;;;;;;;;;;5068985;28;20499;-76
2022/01/06 12:30:40;;;;;;;5.82;1.60;;;;;;;;;;5069501;28;20040;-76
2022/01/06 12:33:07;;;;;;;6.70;1.65;;;;;;;;;;5068753;28;20044;-73
2022/01/06 12:35:50;;;;;;;11.52;2.17;;;;;;;;;;5069477;28;20040;-73
2022/01/06 12:38:22;;;;;;;6.75;1.60;;;;;;;;;;5067715;28;20430;-74
2022/01/06 12:40:49;;;;;;;6.55;2.15;;;;;;;;;;5068514;28;20052;-73
2022/01/06 12:43:17;;;;;;;6.50;1.80;;;;;;;;;;5069294;28;20048;-74
2022/01/06 12:45:44;;;;;;;8.30;1.90;;;;;;;;;;5068393;28;20036;-74
2022/01/06 12:48:12;;;;;;;5.45;1.52;;;;;;;;;;5067385;28;20510;-74
2022/01/06 12:50:50;;;;;;;6.53;2.03;;;;;;;;;;5067890;28;20055;-75
2022/01/06 12:53:37;;;;;;;6.80;1.90;;;;;;;;;;5067801;28;20131;-74
2022/01/06 12:56:04;;;;;;;6.60;1.48;;;;;;;;;;5068316;28;20082;-74
2022/01/06 12:58:31;;;;;;;5.93;1.92;;;;;;;;;;5067729;28;20407;-74
2022/01/06 13:00:59;;;;;;;6.50;1.98;;;;;;;;;;5068911;28;20095;-74
2022/01/06 13:03:26;;;;;;;6.90;1.77;;;;;;;;;;5068817;28;20044;-76
2022/01/06 13:05:52;;;;;;;5.35;1.40;;;;;;;;;;5068849;28;20045;-76
2022/01/06 13:08:19;;;;;;;3.88;1.40;;;;;;;;;;5067209;28;20075;-77
2022/01/06 13:10:45;;;;;;;4.75;1.55;;;;;;;;;;5067691;28;20433;-75
2022/01/06 13:13:11;;;;;;;4.80;1.50;;;;;;;;;;5067370;28;20406;-76
2022/01/06 13:15:37;;;;;;;9.77;2.38;;;;;;;;;;5039031;28;20068;-76
2022/01/06 13:18:03;;;;;;;5.60;1.42;;;;;;;;;;5068493;28;20056;-75
2022/01/06 13:20:37;;;;;;;7.75;1.77;;;;;;;;;;5067535;28;20045;-73
2022/01/06 13:26:04;;;;;;;5.78;1.90;;;;;;;;;;5071211;28;20044;-73
2022/01/06 13:28:30;;;;;;;6.10;1.83;;;;;;;;;;5070893;28;20048;-73
2022/01/06 13:30:56;;;;;;;10.05;2.17;;;;;;;;;;5071552;28;20090;-73
2022/01/06 13:33:24;;;;;;;7.15;2.15;;;;;;;;;;5072579;28;20384;-73
2022/01/06 13:35:50;;;;;;;6.53;1.27;;;;;;;;;;5071533;28;20102;-73
2022/01/06 13:38:23;;;;;;;5.78;1.55;;;;;;;;;;5072709;28;20041;-73
2022/01/06 13:40:50;;;;;;;5.28;1.70;;;;;;;;;;5072580;28;20052;-72
2022/01/06 13:43:20;;;;;;;4.38;1.58;;;;;;;;;;5072547;28;20040;-73
2022/01/06 13:45:49;;;;;;;5.82;1.63;;;;;;;;;;5072773;28;20131;-73
2022/01/06 13:51:08;;;;;;;5.07;1.35;;;;;;;;;;5072004;28;20053;-72
2022/01/06 13:53:40;;;;;;;4.78;1.52;;;;;;;;;;5072514;28;20072;-73
2022/01/06 13:56:13;;;;;;;5.28;1.30;;;;;;;;;;5072853;28;20053;-73
2022/01/06 13:58:40;;;;;;;6.10;1.58;;;;;;;;;;5072758;28;20045;-73
2022/01/06 14:01:07;;;;;;;3.63;1.20;;;;;;;;;;5071179;28;20090;-73
2022/01/06 14:03:34;;;;;;;5.38;1.15;;;;;;;;;;5071078;28;20113;-72
2022/01/06 14:06:01;;;;;;;4.75;1.40;;;;;;;;;;5070943;28;20051;-73
2022/01/06 14:08:27;;;;;;;5.70;1.63;;;;;;;;;;5072314;28;20483;-73
2022/01/06 14:10:53;;;;;;;3.47;1.10;;;;;;;;;;5071394;28;20148;-73
2022/01/06 14:13:19;;;;;;;5.60;1.92;;;;;;;;;;5071993;28;20049;-72
2022/01/06 14:15:45;;;;;;;4.78;1.73;;;;;;;;;;5072400;28;20391;-73
2022/01/06 14:18:12;;;;;;;5.15;1.38;;;;;;;;;;5072145;28;20449;-74
2022/01/06 14:20:38;;;;;;;4.07;1.27;;;;;;;;;;5072347;28;20076;-73
2022/01/06 14:23:04;;;;;;;4.28;1.35;;;;;;;;;;5071679;28;20045;-73
2022/01/06 14:25:30;;;;;;;4.88;1.50;;;;;;;;;;5070416;28;20049;-74
2022/01/06 14:27:57;;;;;;;3.55;1.40;;;;;;;;;;5072183;28;20501;-73
2022/01/06 14:30:23;;;;;;;5.20;1.20;;;;;;;;;;5072022;28;20041;-74
2022/01/06 14:32:50;;;;;;;4.43;1.50;;;;;;;;;;5070384;28;20045;-73
2022/01/06 14:35:16;;;;;;;4.03;1.13;;;;;;;;;;5072020;28;20514;-72
2022/01/06 14:37:42;;;;;;;5.50;1.50;;;;;;;;;;5070756;28;20463;-74
2022/01/06 14:40:09;;;;;;;4.78;1.20;;;;;;;;;;5071705;28;20060;-73
2022/01/06 14:42:35;;;;;;;5.65;1.40;;;;;;;;;;5069524;28;20089;-73
2022/01/06 14:45:01;;;;;;;4.97;1.48;;;;;;;;;;5071659;28;20049;-74
2022/01/06 14:47:27;;;;;;;4.20;1.10;;;;;;;;;;5069083;28;20069;-75
2022/01/06 14:49:53;;;;;;;8.73;1.38;;;;;;;;;;5071824;28;20091;-73
2022/01/06 14:52:19;;;;;;;4.75;1.65;;;;;;;;;;5069944;28;20094;-73
2022/01/06 14:54:45;;;;;;;4.25;1.25;;;;;;;;;;5071659;28;20084;-73